sensor_id;sensor_type;location;lat;lon;timestamp;pressure;altitude;pressure_sealevel;temperature;humidity
59063;BME280;44851;45.648;9.004;2022-08-07T00:00:21;99072.34;;;26.09;46.49
59063;BME280;44851;45.648;9.004;2022-08-07T00:02:47;99067.34;;;26.13;46.77
59063;BME280;44851;45.648;9.004;2022-08-07T00:05:12;99061.53;;;26.16;47.06
59063;BME280;44851;45.648;9.004;2022-08-07T00:07:38;99065.41;;;26.25;47.00
59063;BME280;44851;45.648;9.004;2022-08-07T00:10:04;99068.16;;;26.30;47.14
59063;BME280;44851;45.648;9.004;2022-08-07T00:12:29;99060.22;;;26.18;47.55
59063;BME280;44851;45.648;9.004;2022-08-07T00:14:56;99059.78;;;26.10;48.08
59063;BME280;44851;45.648;9.004;2022-08-07T00:17:21;99051.50;;;26.23;47.92
59063;BME280;44851;45.648;9.004;2022-08-07T00:19:47;99042.22;;;26.14;47.99
59063;BME280;44851;45.648;9.004;2022-08-07T00:22:12;99032.69;;;26.18;48.54
59063;BME280;44851;45.648;9.004;2022-08-07T00:24:38;99025.72;;;26.17;48.66
59063;BME280;44851;45.648;9.004;2022-08-07T00:27:03;99022.47;;;26.15;49.10
59063;BME280;44851;45.648;9.004;2022-08-07T00:29:28;99028.13;;;26.02;50.00
59063;BME280;44851;45.648;9.004;2022-08-07T00:31:54;99021.78;;;25.91;50.39
59063;BME280;44851;45.648;9.004;2022-08-07T00:34:24;99030.72;;;25.97;50.39
59063;BME280;44851;45.648;9.004;2022-08-07T00:36:50;99015.66;;;25.90;50.49
59063;BME280;44851;45.648;9.004;2022-08-07T00:39:15;99016.28;;;25.98;50.27
59063;BME280;44851;45.648;9.004;2022-08-07T00:41:50;99008.09;;;25.87;50.41
59063;BME280;44851;45.648;9.004;2022-08-07T00:44:16;99014.03;;;25.89;50.36
59063;BME280;44851;45.648;9.004;2022-08-07T00:46:42;99017.41;;;25.85;50.84
59063;BME280;44851;45.648;9.004;2022-08-07T00:49:07;99020.56;;;25.70;50.89
59063;BME280;44851;45.648;9.004;2022-08-07T00:51:34;99027.00;;;25.57;51.56
59063;BME280;44851;45.648;9.004;2022-08-07T00:53:59;99035.63;;;25.76;51.52
59063;BME280;44851;45.648;9.004;2022-08-07T00:56:25;99052.59;;;25.70;51.07
59063;BME280;44851;45.648;9.004;2022-08-07T00:58:51;99050.97;;;25.69;51.74
59063;BME280;44851;45.648;9.004;2022-08-07T01:01:17;99061.16;;;25.72;51.19
59063;BME280;44851;45.648;9.004;2022-08-07T01:03:44;99072.66;;;25.73;51.22
59063;BME280;44851;45.648;9.004;2022-08-07T01:06:10;99073.50;;;25.73;51.14
59063;BME280;44851;45.648;9.004;2022-08-07T01:08:35;99070.00;;;25.84;50.57
59063;BME280;44851;45.648;9.004;2022-08-07T01:11:01;99064.88;;;25.94;50.63
59063;BME280;44851;45.648;9.004;2022-08-07T01:13:27;99053.22;;;26.01;50.21
59063;BME280;44851;45.648;9.004;2022-08-07T01:15:53;99052.97;;;26.02;50.56
59063;BME280;44851;45.648;9.004;2022-08-07T01:18:19;99053.19;;;25.84;50.69
59063;BME280;44851;45.648;9.004;2022-08-07T01:23:20;99069.88;;;25.79;51.65
59063;BME280;44851;45.648;9.004;2022-08-07T01:25:45;99068.56;;;25.82;51.27
59063;BME280;44851;45.648;9.004;2022-08-07T01:28:11;99083.69;;;25.76;51.25
59063;BME280;44851;45.648;9.004;2022-08-07T01:30:37;99082.53;;;25.72;51.48
59063;BME280;44851;45.648;9.004;2022-08-07T01:33:03;99091.88;;;25.58;52.06
59063;BME280;44851;45.648;9.004;2022-08-07T01:35:28;99085.63;;;25.52;51.66
59063;BME280;44851;45.648;9.004;2022-08-07T01:37:55;99083.13;;;25.62;51.85
59063;BME280;44851;45.648;9.004;2022-08-07T01:40:22;99068.88;;;25.57;51.75
59063;BME280;44851;45.648;9.004;2022-08-07T01:42:48;99071.00;;;25.43;51.85
59063;BME280;44851;45.648;9.004;2022-08-07T01:45:14;99077.59;;;25.52;51.74
59063;BME280;44851;45.648;9.004;2022-08-07T01:47:40;99064.75;;;25.37;52.26
59063;BME280;44851;45.648;9.004;2022-08-07T01:50:05;99058.00;;;25.47;52.17
59063;BME280;44851;45.648;9.004;2022-08-07T01:52:33;99058.47;;;25.43;51.55
59063;BME280;44851;45.648;9.004;2022-08-07T01:55:00;99056.28;;;25.29;52.38
59063;BME280;44851;45.648;9.004;2022-08-07T01:57:28;99047.59;;;25.22;52.35
59063;BME280;44851;45.648;9.004;2022-08-07T02:00:08;99041.06;;;25.29;52.33
59063;BME280;44851;45.648;9.004;2022-08-07T02:02:52;99043.75;;;25.29;51.95
59063;BME280;44851;45.648;9.004;2022-08-07T02:05:28;99050.69;;;25.30;52.05
59063;BME280;44851;45.648;9.004;2022-08-07T02:07:57;99051.06;;;25.22;51.89
59063;BME280;44851;45.648;9.004;2022-08-07T02:10:25;99057.44;;;25.21;51.71
59063;BME280;44851;45.648;9.004;2022-08-07T02:12:53;99055.09;;;25.25;51.93
59063;BME280;44851;45.648;9.004;2022-08-07T02:15:22;99060.09;;;25.33;51.79
59063;BME280;44851;45.648;9.004;2022-08-07T02:17:48;99063.22;;;25.41;50.92
59063;BME280;44851;45.648;9.004;2022-08-07T02:20:15;99071.94;;;25.25;51.65
59063;BME280;44851;45.648;9.004;2022-08-07T02:22:41;99062.53;;;25.11;52.13
59063;BME280;44851;45.648;9.004;2022-08-07T02:25:08;99065.88;;;25.18;52.29
59063;BME280;44851;45.648;9.004;2022-08-07T02:27:34;99070.03;;;25.14;52.35
59063;BME280;44851;45.648;9.004;2022-08-07T02:30:02;99069.72;;;25.34;51.71
59063;BME280;44851;45.648;9.004;2022-08-07T02:32:28;99066.13;;;25.28;51.73
59063;BME280;44851;45.648;9.004;2022-08-07T02:34:55;99071.00;;;25.31;51.75
59063;BME280;44851;45.648;9.004;2022-08-07T02:37:22;99076.09;;;25.09;51.78
59063;BME280;44851;45.648;9.004;2022-08-07T02:39:49;99077.75;;;25.22;51.61
59063;BME280;44851;45.648;9.004;2022-08-07T02:42:17;99075.50;;;25.19;51.78
59063;BME280;44851;45.648;9.004;2022-08-07T02:44:44;99074.81;;;25.00;52.62
59063;BME280;44851;45.648;9.004;2022-08-07T02:47:10;99060.44;;;25.01;52.45
59063;BME280;44851;45.648;9.004;2022-08-07T02:49:37;99058.00;;;25.11;52.04
59063;BME280;44851;45.648;9.004;2022-08-07T02:52:04;99043.75;;;25.06;52.50
59063;BME280;44851;45.648;9.004;2022-08-07T02:54:33;99036.41;;;25.13;52.75
59063;BME280;44851;45.648;9.004;2022-08-07T02:57:01;99028.31;;;25.08;52.14
59063;BME280;44851;45.648;9.004;2022-08-07T02:59:28;99033.06;;;25.06;52.19
59063;BME280;44851;45.648;9.004;2022-08-07T03:01:56;99032.84;;;24.96;52.71
59063;BME280;44851;45.648;9.004;2022-08-07T03:04:23;99041.88;;;25.06;52.19
59063;BME280;44851;45.648;9.004;2022-08-07T03:06:51;99039.91;;;25.02;52.22
59063;BME280;44851;45.648;9.004;2022-08-07T03:09:17;99041.53;;;25.03;52.45
59063;BME280;44851;45.648;9.004;2022-08-07T03:11:44;99051.16;;;24.92;52.78
59063;BME280;44851;45.648;9.004;2022-08-07T03:14:10;99049.75;;;25.01;52.34
59063;BME280;44851;45.648;9.004;2022-08-07T03:16:37;99055.22;;;25.06;52.00
59063;BME280;44851;45.648;9.004;2022-08-07T03:19:02;99066.69;;;24.95;52.58
59063;BME280;44851;45.648;9.004;2022-08-07T03:21:28;99071.22;;;24.95;52.94
59063;BME280;44851;45.648;9.004;2022-08-07T03:23:55;99062.88;;;25.03;52.83
59063;BME280;44851;45.648;9.004;2022-08-07T03:26:24;99077.13;;;24.97;52.97
59063;BME280;44851;45.648;9.004;2022-08-07T03:28:50;99089.88;;;24.95;52.59
59063;BME280;44851;45.648;9.004;2022-08-07T03:31:18;99087.22;;;24.95;52.64
59063;BME280;44851;45.648;9.004;2022-08-07T03:33:50;99089.78;;;24.89;53.10
59063;BME280;44851;45.648;9.004;2022-08-07T03:36:19;99078.63;;;24.92;53.08
59063;BME280;44851;45.648;9.004;2022-08-07T03:38:47;99087.91;;;24.90;53.59
59063;BME280;44851;45.648;9.004;2022-08-07T03:41:14;99078.50;;;24.76;53.91
59063;BME280;44851;45.648;9.004;2022-08-07T03:43:40;99077.13;;;24.85;53.60
59063;BME280;44851;45.648;9.004;2022-08-07T03:46:06;99079.53;;;24.86;53.76
59063;BME280;44851;45.648;9.004;2022-08-07T03:48:35;99071.44;;;24.81;54.04
59063;BME280;44851;45.648;9.004;2022-08-07T03:51:02;99077.25;;;24.90;53.18
59063;BME280;44851;45.648;9.004;2022-08-07T03:53:28;99078.25;;;24.65;54.58
59063;BME280;44851;45.648;9.004;2022-08-07T03:55:54;99072.47;;;24.69;54.31
59063;BME280;44851;45.648;9.004;2022-08-07T03:58:22;99080.09;;;24.65;54.52
59063;BME280;44851;45.648;9.004;2022-08-07T04:00:48;99079.88;;;24.67;54.24
59063;BME280;44851;45.648;9.004;2022-08-07T04:03:17;99080.69;;;24.67;54.14
59063;BME280;44851;45.648;9.004;2022-08-07T04:05:43;99086.97;;;24.73;54.00
59063;BME280;44851;45.648;9.004;2022-08-07T04:08:11;99078.59;;;24.69;54.57
59063;BME280;44851;45.648;9.004;2022-08-07T04:10:38;99078.16;;;24.72;54.14
59063;BME280;44851;45.648;9.004;2022-08-07T04:13:04;99082.28;;;24.56;54.77
59063;BME280;44851;45.648;9.004;2022-08-07T04:15:32;99085.91;;;24.62;54.22
59063;BME280;44851;45.648;9.004;2022-08-07T04:17:58;99082.88;;;24.58;54.64
59063;BME280;44851;45.648;9.004;2022-08-07T04:20:24;99086.88;;;24.49;54.97
59063;BME280;44851;45.648;9.004;2022-08-07T04:22:50;99088.72;;;24.49;54.91
59063;BME280;44851;45.648;9.004;2022-08-07T04:25:17;99098.69;;;24.42;55.24
59063;BME280;44851;45.648;9.004;2022-08-07T04:27:44;99108.03;;;24.32;55.66
59063;BME280;44851;45.648;9.004;2022-08-07T04:30:10;99112.56;;;24.44;55.83
59063;BME280;44851;45.648;9.004;2022-08-07T04:32:36;99111.31;;;24.46;55.20
59063;BME280;44851;45.648;9.004;2022-08-07T04:35:04;99123.84;;;24.46;55.01
59063;BME280;44851;45.648;9.004;2022-08-07T04:37:30;99117.91;;;24.44;54.53
59063;BME280;44851;45.648;9.004;2022-08-07T04:39:56;99118.69;;;24.32;55.15
59063;BME280;44851;45.648;9.004;2022-08-07T04:42:22;99124.66;;;24.46;54.98
59063;BME280;44851;45.648;9.004;2022-08-07T04:44:53;99121.59;;;24.43;54.88
59063;BME280;44851;45.648;9.004;2022-08-07T04:47:28;99132.56;;;24.34;55.52
59063;BME280;44851;45.648;9.004;2022-08-07T04:52:45;99126.53;;;24.27;55.51
59063;BME280;44851;45.648;9.004;2022-08-07T04:57:55;99123.63;;;24.29;55.64
59063;BME280;44851;45.648;9.004;2022-08-07T05:03:20;99116.47;;;24.29;55.55
59063;BME280;44851;45.648;9.004;2022-08-07T05:11:31;99112.44;;;24.38;55.32
59063;BME280;44851;45.648;9.004;2022-08-07T05:14:05;99111.34;;;24.28;55.43
59063;BME280;44851;45.648;9.004;2022-08-07T05:16:34;99112.03;;;24.23;55.62
59063;BME280;44851;45.648;9.004;2022-08-07T05:19:07;99113.59;;;24.31;56.06
59063;BME280;44851;45.648;9.004;2022-08-07T05:21:34;99118.13;;;24.42;55.71
59063;BME280;44851;45.648;9.004;2022-08-07T05:24:09;99112.78;;;24.30;55.71
59063;BME280;44851;45.648;9.004;2022-08-07T05:26:36;99112.94;;;24.17;56.65
59063;BME280;44851;45.648;9.004;2022-08-07T05:29:05;99114.53;;;24.36;55.68
59063;BME280;44851;45.648;9.004;2022-08-07T05:31:33;99119.25;;;24.34;55.71
59063;BME280;44851;45.648;9.004;2022-08-07T05:34:00;99116.00;;;24.32;55.69
59063;BME280;44851;45.648;9.004;2022-08-07T05:36:27;99123.59;;;24.47;55.29
59063;BME280;44851;45.648;9.004;2022-08-07T05:38:54;99131.22;;;24.62;55.23
59063;BME280;44851;45.648;9.004;2022-08-07T05:41:20;99128.22;;;24.70;54.04
59063;BME280;44851;45.648;9.004;2022-08-07T05:43:51;99128.47;;;24.80;54.19
59063;BME280;44851;45.648;9.004;2022-08-07T05:46:22;99131.69;;;24.82;53.64
59063;BME280;44851;45.648;9.004;2022-08-07T05:48:49;99126.72;;;24.86;53.73
59063;BME280;44851;45.648;9.004;2022-08-07T05:51:19;99134.84;;;24.79;53.95
59063;BME280;44851;45.648;9.004;2022-08-07T05:53:45;99129.63;;;24.84;54.24
59063;BME280;44851;45.648;9.004;2022-08-07T05:56:12;99132.44;;;24.89;54.36
59063;BME280;44851;45.648;9.004;2022-08-07T05:58:39;99125.91;;;24.85;53.93
59063;BME280;44851;45.648;9.004;2022-08-07T06:01:06;99122.47;;;24.97;53.68
59063;BME280;44851;45.648;9.004;2022-08-07T06:03:31;99123.03;;;24.87;54.82
59063;BME280;44851;45.648;9.004;2022-08-07T06:05:58;99126.88;;;25.03;54.17
59063;BME280;44851;45.648;9.004;2022-08-07T06:08:24;99126.53;;;25.11;54.28
59063;BME280;44851;45.648;9.004;2022-08-07T06:10:51;99130.25;;;25.10;55.09
59063;BME280;44851;45.648;9.004;2022-08-07T06:13:17;99130.47;;;25.08;54.51
59063;BME280;44851;45.648;9.004;2022-08-07T06:15:43;99127.91;;;25.13;54.15
59063;BME280;44851;45.648;9.004;2022-08-07T06:18:13;99125.75;;;25.22;54.23
59063;BME280;44851;45.648;9.004;2022-08-07T06:20:38;99119.72;;;25.27;53.38
59063;BME280;44851;45.648;9.004;2022-08-07T06:23:06;99121.81;;;25.36;53.15
59063;BME280;44851;45.648;9.004;2022-08-07T06:25:33;99114.16;;;25.28;53.71
59063;BME280;44851;45.648;9.004;2022-08-07T06:28:06;99117.63;;;25.40;52.31
59063;BME280;44851;45.648;9.004;2022-08-07T06:30:36;99121.94;;;25.41;53.31
59063;BME280;44851;45.648;9.004;2022-08-07T06:33:03;99119.94;;;25.49;52.04
59063;BME280;44851;45.648;9.004;2022-08-07T06:35:29;99124.91;;;25.57;52.34
59063;BME280;44851;45.648;9.004;2022-08-07T06:37:55;99126.78;;;25.68;51.79
59063;BME280;44851;45.648;9.004;2022-08-07T06:40:22;99126.06;;;25.73;52.37
59063;BME280;44851;45.648;9.004;2022-08-07T06:42:48;99118.88;;;25.73;51.25
59063;BME280;44851;45.648;9.004;2022-08-07T06:45:20;99122.38;;;25.85;49.65
59063;BME280;44851;45.648;9.004;2022-08-07T06:47:47;99121.16;;;25.81;49.20
59063;BME280;44851;45.648;9.004;2022-08-07T06:50:13;99126.41;;;25.76;49.73
59063;BME280;44851;45.648;9.004;2022-08-07T06:52:41;99118.63;;;25.75;49.39
59063;BME280;44851;45.648;9.004;2022-08-07T06:55:25;99123.38;;;25.96;49.40
59063;BME280;44851;45.648;9.004;2022-08-07T06:57:56;99118.09;;;26.13;48.40
59063;BME280;44851;45.648;9.004;2022-08-07T07:00:23;99119.81;;;26.19;46.43
59063;BME280;44851;45.648;9.004;2022-08-07T07:02:49;99115.91;;;26.38;45.53
59063;BME280;44851;45.648;9.004;2022-08-07T07:05:15;99122.84;;;26.68;46.41
59063;BME280;44851;45.648;9.004;2022-08-07T07:07:44;99119.97;;;26.86;45.39
59063;BME280;44851;45.648;9.004;2022-08-07T07:10:13;99113.13;;;26.79;43.80
59063;BME280;44851;45.648;9.004;2022-08-07T07:12:53;99113.13;;;26.79;42.83
59063;BME280;44851;45.648;9.004;2022-08-07T07:15:28;99110.72;;;26.94;43.30
59063;BME280;44851;45.648;9.004;2022-08-07T07:18:23;99106.03;;;27.01;43.78
59063;BME280;44851;45.648;9.004;2022-08-07T07:20:52;99101.09;;;27.10;43.08
59063;BME280;44851;45.648;9.004;2022-08-07T07:23:21;99091.59;;;27.02;43.54
59063;BME280;44851;45.648;9.004;2022-08-07T07:25:50;99097.94;;;27.13;43.88
59063;BME280;44851;45.648;9.004;2022-08-07T07:28:23;99090.97;;;27.12;43.18
59063;BME280;44851;45.648;9.004;2022-08-07T07:31:11;99092.88;;;27.16;42.58
59063;BME280;44851;45.648;9.004;2022-08-07T07:33:40;99079.28;;;27.01;42.69
59063;BME280;44851;45.648;9.004;2022-08-07T07:36:07;99084.13;;;27.21;42.73
59063;BME280;44851;45.648;9.004;2022-08-07T07:38:33;99083.19;;;27.32;41.23
59063;BME280;44851;45.648;9.004;2022-08-07T07:41:06;99089.06;;;27.29;41.59
59063;BME280;44851;45.648;9.004;2022-08-07T07:43:33;99079.78;;;27.37;40.58
59063;BME280;44851;45.648;9.004;2022-08-07T07:46:01;99082.41;;;27.32;41.71
59063;BME280;44851;45.648;9.004;2022-08-07T07:48:29;99085.56;;;27.29;42.57
59063;BME280;44851;45.648;9.004;2022-08-07T07:50:55;99083.91;;;27.44;42.53
59063;BME280;44851;45.648;9.004;2022-08-07T07:53:23;99080.78;;;27.52;41.82
59063;BME280;44851;45.648;9.004;2022-08-07T07:55:56;99082.47;;;27.37;41.41
59063;BME280;44851;45.648;9.004;2022-08-07T07:58:25;99083.53;;;27.36;41.48
59063;BME280;44851;45.648;9.004;2022-08-07T08:00:53;99085.16;;;27.59;42.60
59063;BME280;44851;45.648;9.004;2022-08-07T08:03:19;99085.34;;;27.52;40.89
59063;BME280;44851;45.648;9.004;2022-08-07T08:05:45;99090.31;;;27.82;41.33
59063;BME280;44851;45.648;9.004;2022-08-07T08:08:11;99085.75;;;27.61;40.97
59063;BME280;44851;45.648;9.004;2022-08-07T08:10:38;99085.97;;;27.59;40.96
59063;BME280;44851;45.648;9.004;2022-08-07T08:13:05;99087.38;;;27.62;39.98
59063;BME280;44851;45.648;9.004;2022-08-07T08:15:35;99089.53;;;27.65;39.48
59063;BME280;44851;45.648;9.004;2022-08-07T08:18:09;99092.94;;;27.77;39.83
59063;BME280;44851;45.648;9.004;2022-08-07T08:20:37;99086.63;;;27.66;39.32
59063;BME280;44851;45.648;9.004;2022-08-07T08:23:08;99089.19;;;27.78;38.92
59063;BME280;44851;45.648;9.004;2022-08-07T08:25:55;99098.34;;;27.82;38.59
59063;BME280;44851;45.648;9.004;2022-08-07T08:28:43;99096.78;;;27.86;39.46
59063;BME280;44851;45.648;9.004;2022-08-07T08:31:16;99093.44;;;27.57;38.87
59063;BME280;44851;45.648;9.004;2022-08-07T08:33:48;99101.16;;;27.92;39.92
59063;BME280;44851;45.648;9.004;2022-08-07T08:36:17;99095.78;;;27.92;38.39
59063;BME280;44851;45.648;9.004;2022-08-07T08:38:45;99087.94;;;28.08;37.89
59063;BME280;44851;45.648;9.004;2022-08-07T08:41:20;99095.50;;;28.16;38.75
59063;BME280;44851;45.648;9.004;2022-08-07T08:44:01;99093.31;;;28.13;37.17
59063;BME280;44851;45.648;9.004;2022-08-07T08:49:41;99098.53;;;27.97;37.02
59063;BME280;44851;45.648;9.004;2022-08-07T08:55:09;99089.59;;;27.70;37.82
59063;BME280;44851;45.648;9.004;2022-08-07T08:57:43;99094.59;;;28.05;38.34
59063;BME280;44851;45.648;9.004;2022-08-07T09:00:11;99092.38;;;27.97;38.30
59063;BME280;44851;45.648;9.004;2022-08-07T09:07:56;99089.78;;;28.29;36.45
59063;BME280;44851;45.648;9.004;2022-08-07T09:10:35;99087.06;;;27.80;37.72
59063;BME280;44851;45.648;9.004;2022-08-07T09:24:07;99079.13;;;28.39;38.32
59063;BME280;44851;45.648;9.004;2022-08-07T09:29:21;99080.13;;;28.06;38.59
59063;BME280;44851;45.648;9.004;2022-08-07T09:32:16;99083.94;;;27.88;38.04
59063;BME280;44851;45.648;9.004;2022-08-07T09:37:27;99084.09;;;28.52;37.89
59063;BME280;44851;45.648;9.004;2022-08-07T09:40:13;99090.03;;;28.60;37.58
59063;BME280;44851;45.648;9.004;2022-08-07T09:48:16;99079.03;;;29.25;36.31
59063;BME280;44851;45.648;9.004;2022-08-07T09:53:14;99077.63;;;29.70;37.50
59063;BME280;44851;45.648;9.004;2022-08-07T10:02:28;99076.53;;;30.54;36.05
59063;BME280;44851;45.648;9.004;2022-08-07T10:18:38;99056.63;;;30.71;33.90
59063;BME280;44851;45.648;9.004;2022-08-07T10:24:42;99050.16;;;30.82;33.39
59063;BME280;44851;45.648;9.004;2022-08-07T10:27:39;99054.22;;;30.44;34.28
59063;BME280;44851;45.648;9.004;2022-08-07T10:30:12;99038.03;;;30.95;33.57
59063;BME280;44851;45.648;9.004;2022-08-07T10:40:51;99031.25;;;29.85;35.70
59063;BME280;44851;45.648;9.004;2022-08-07T10:43:23;99034.75;;;29.91;36.75
59063;BME280;44851;45.648;9.004;2022-08-07T10:45:57;99043.09;;;30.09;35.90
59063;BME280;44851;45.648;9.004;2022-08-07T10:51:34;99024.34;;;30.66;35.39
59063;BME280;44851;45.648;9.004;2022-08-07T10:54:20;99031.03;;;30.83;35.45
59063;BME280;44851;45.648;9.004;2022-08-07T11:04:58;99018.25;;;31.40;35.15
59063;BME280;44851;45.648;9.004;2022-08-07T11:07:49;99015.28;;;31.36;37.36
59063;BME280;44851;45.648;9.004;2022-08-07T11:10:23;99013.41;;;31.37;34.75
59063;BME280;44851;45.648;9.004;2022-08-07T11:12:57;99006.97;;;31.33;34.93
59063;BME280;44851;45.648;9.004;2022-08-07T11:15:26;99013.19;;;31.88;35.09
59063;BME280;44851;45.648;9.004;2022-08-07T11:17:59;99015.97;;;31.73;35.38
59063;BME280;44851;45.648;9.004;2022-08-07T11:20:50;99012.59;;;31.47;34.69
59063;BME280;44851;45.648;9.004;2022-08-07T11:26:03;99016.44;;;31.80;34.72
59063;BME280;44851;45.648;9.004;2022-08-07T11:28:38;99001.97;;;31.71;34.25
59063;BME280;44851;45.648;9.004;2022-08-07T11:31:21;98998.88;;;31.93;33.28
59063;BME280;44851;45.648;9.004;2022-08-07T11:33:54;98997.44;;;31.61;34.50
59063;BME280;44851;45.648;9.004;2022-08-07T11:36:38;99001.34;;;31.84;34.23
59063;BME280;44851;45.648;9.004;2022-08-07T11:39:53;98998.59;;;31.89;34.94
59063;BME280;44851;45.648;9.004;2022-08-07T11:50:58;98982.28;;;32.14;33.58
59063;BME280;44851;45.648;9.004;2022-08-07T11:56:41;98973.41;;;32.43;33.81
59063;BME280;44851;45.648;9.004;2022-08-07T12:05:17;98962.66;;;32.38;33.98
59063;BME280;44851;45.648;9.004;2022-08-07T12:07:56;98963.63;;;32.52;32.77
59063;BME280;44851;45.648;9.004;2022-08-07T12:10:48;98956.25;;;32.34;33.11
59063;BME280;44851;45.648;9.004;2022-08-07T12:13:26;98954.97;;;32.55;32.52
59063;BME280;44851;45.648;9.004;2022-08-07T12:15:56;98958.09;;;32.67;32.46
59063;BME280;44851;45.648;9.004;2022-08-07T12:18:34;98950.94;;;32.82;31.66
59063;BME280;44851;45.648;9.004;2022-08-07T12:26:40;98941.00;;;32.48;32.68
59063;BME280;44851;45.648;9.004;2022-08-07T12:29:27;98936.56;;;32.62;32.14
59063;BME280;44851;45.648;9.004;2022-08-07T12:32:14;98936.22;;;32.93;31.54
59063;BME280;44851;45.648;9.004;2022-08-07T12:34:43;98929.31;;;33.30;31.03
59063;BME280;44851;45.648;9.004;2022-08-07T12:37:12;98935.84;;;33.48;31.11
59063;BME280;44851;45.648;9.004;2022-08-07T12:39:41;98926.25;;;33.55;30.62
59063;BME280;44851;45.648;9.004;2022-08-07T12:42:09;98923.78;;;33.16;31.29
59063;BME280;44851;45.648;9.004;2022-08-07T12:44:38;98926.19;;;33.17;30.85
59063;BME280;44851;45.648;9.004;2022-08-07T12:49:49;98925.75;;;33.10;30.79
59063;BME280;44851;45.648;9.004;2022-08-07T12:52:28;98907.84;;;32.72;30.28
59063;BME280;44851;45.648;9.004;2022-08-07T12:55:01;98911.88;;;32.98;30.39
59063;BME280;44851;45.648;9.004;2022-08-07T12:57:31;98898.63;;;33.21;30.72
59063;BME280;44851;45.648;9.004;2022-08-07T12:59:59;98898.34;;;33.41;29.41
59063;BME280;44851;45.648;9.004;2022-08-07T13:02:55;98895.34;;;33.61;30.85
59063;BME280;44851;45.648;9.004;2022-08-07T13:05:40;98890.75;;;33.43;29.41
59063;BME280;44851;45.648;9.004;2022-08-07T13:11:08;98883.72;;;33.23;28.91
59063;BME280;44851;45.648;9.004;2022-08-07T13:13:43;98875.47;;;33.71;29.69
59063;BME280;44851;45.648;9.004;2022-08-07T13:16:20;98856.22;;;33.91;29.64
59063;BME280;44851;45.648;9.004;2022-08-07T13:18:56;98859.78;;;34.06;29.38
59063;BME280;44851;45.648;9.004;2022-08-07T13:21:29;98854.47;;;34.14;28.91
59063;BME280;44851;45.648;9.004;2022-08-07T13:24:09;98847.53;;;34.08;28.70
59063;BME280;44851;45.648;9.004;2022-08-07T13:27:02;98846.44;;;33.77;28.86
59063;BME280;44851;45.648;9.004;2022-08-07T13:30:20;98836.31;;;34.01;29.38
59063;BME280;44851;45.648;9.004;2022-08-07T13:37:50;98834.03;;;33.76;29.55
59063;BME280;44851;45.648;9.004;2022-08-07T13:40:34;98833.84;;;33.86;29.39
59063;BME280;44851;45.648;9.004;2022-08-07T13:43:10;98821.69;;;34.02;29.09
59063;BME280;44851;45.648;9.004;2022-08-07T13:45:39;98819.63;;;33.80;29.24
59063;BME280;44851;45.648;9.004;2022-08-07T13:48:06;98804.44;;;33.98;29.04
59063;BME280;44851;45.648;9.004;2022-08-07T13:50:37;98804.78;;;34.10;29.66
59063;BME280;44851;45.648;9.004;2022-08-07T13:53:04;98803.22;;;33.90;29.67
59063;BME280;44851;45.648;9.004;2022-08-07T13:55:31;98798.25;;;34.25;29.07
59063;BME280;44851;45.648;9.004;2022-08-07T13:58:04;98794.38;;;34.31;28.83
59063;BME280;44851;45.648;9.004;2022-08-07T14:00:52;98796.25;;;34.03;29.77
59063;BME280;44851;45.648;9.004;2022-08-07T14:03:19;98793.72;;;33.93;29.66
59063;BME280;44851;45.648;9.004;2022-08-07T14:05:46;98787.97;;;33.81;30.25
59063;BME280;44851;45.648;9.004;2022-08-07T14:08:15;98793.69;;;33.47;30.21
59063;BME280;44851;45.648;9.004;2022-08-07T14:10:42;98794.88;;;33.03;31.08
59063;BME280;44851;45.648;9.004;2022-08-07T14:13:14;98790.59;;;32.35;32.16
59063;BME280;44851;45.648;9.004;2022-08-07T14:15:43;98793.22;;;32.40;32.04
59063;BME280;44851;45.648;9.004;2022-08-07T14:18:20;98798.03;;;32.67;32.19
59063;BME280;44851;45.648;9.004;2022-08-07T14:20:48;98790.75;;;32.67;32.31
59063;BME280;44851;45.648;9.004;2022-08-07T14:23:18;98802.09;;;33.07;31.80
59063;BME280;44851;45.648;9.004;2022-08-07T14:25:45;98802.69;;;33.04;31.73
59063;BME280;44851;45.648;9.004;2022-08-07T14:28:13;98809.19;;;32.60;31.68
59063;BME280;44851;45.648;9.004;2022-08-07T14:30:44;98811.34;;;32.82;31.48
59063;BME280;44851;45.648;9.004;2022-08-07T14:33:11;98817.06;;;33.00;31.34
59063;BME280;44851;45.648;9.004;2022-08-07T14:35:39;98822.03;;;32.68;31.58
59063;BME280;44851;45.648;9.004;2022-08-07T14:38:07;98822.03;;;33.11;31.55
59063;BME280;44851;45.648;9.004;2022-08-07T14:40:34;98826.56;;;33.16;31.59
59063;BME280;44851;45.648;9.004;2022-08-07T14:45:52;98826.97;;;33.23;31.76
59063;BME280;44851;45.648;9.004;2022-08-07T14:48:31;98836.38;;;32.88;31.86
59063;BME280;44851;45.648;9.004;2022-08-07T14:51:01;98839.34;;;32.67;31.74
59063;BME280;44851;45.648;9.004;2022-08-07T14:53:30;98850.50;;;33.04;32.57
59063;BME280;44851;45.648;9.004;2022-08-07T14:56:02;98861.88;;;33.01;32.33
59063;BME280;44851;45.648;9.004;2022-08-07T14:58:31;98853.38;;;32.40;31.95
59063;BME280;44851;45.648;9.004;2022-08-07T15:00:58;98857.50;;;32.33;31.75
59063;BME280;44851;45.648;9.004;2022-08-07T15:03:26;98856.72;;;32.80;32.36
59063;BME280;44851;45.648;9.004;2022-08-07T15:05:53;98852.59;;;32.64;31.63
59063;BME280;44851;45.648;9.004;2022-08-07T15:08:41;98848.19;;;32.20;32.38
59063;BME280;44851;45.648;9.004;2022-08-07T15:11:12;98848.94;;;31.62;32.78
59063;BME280;44851;45.648;9.004;2022-08-07T15:13:53;98850.25;;;31.26;33.19
59063;BME280;44851;45.648;9.004;2022-08-07T15:16:34;98837.50;;;30.97;33.85
59063;BME280;44851;45.648;9.004;2022-08-07T15:19:05;98837.03;;;31.69;33.17
59063;BME280;44851;45.648;9.004;2022-08-07T15:21:35;98841.78;;;31.82;33.24
59063;BME280;44851;45.648;9.004;2022-08-07T15:24:04;98837.25;;;31.38;33.53
59063;BME280;44851;45.648;9.004;2022-08-07T15:26:36;98835.47;;;31.62;32.98
59063;BME280;44851;45.648;9.004;2022-08-07T15:29:04;98827.66;;;31.22;32.81
59063;BME280;44851;45.648;9.004;2022-08-07T15:31:34;98822.66;;;31.49;32.30